EPE787 OPLA-OPKC
Flight info
| Callsign | EPE787 |
|---|---|
| Flight time | 1h 27m |
| Altitude | 32000 |
| Route | MIMAL G214 RK J112 NH |
| Aircraft | B733/M-SDE2E3FHIRW/S |
Departure
| Time | 2026-04-25 16:42 |
|---|---|
| Airport | Allama Iqbal International Airport (OPLA) |
Arrival
| Time | 2026-04-25 18:10 |
|---|---|
| Airport | Jinnah International Airport (OPKC) |
| Time | Latitude | Longitude | Altitude | Speed | Heading |
|---|---|---|---|---|---|
| 2026-04-25 16:05 | 31.52315 | 74.40959 | 711 ft | 0 kts | 90° |
| 2026-04-25 16:29 | 31.52315 | 74.40955 | 711 ft | 2 kts | 90° |
| 2026-04-25 16:29 | 31.52315 | 74.40937 | 711 ft | 2 kts | 90° |
| 2026-04-25 16:30 | 31.52315 | 74.40919 | 711 ft | 2 kts | 89° |
| 2026-04-25 16:30 | 31.52314 | 74.40892 | 711 ft | 3 kts | 86° |
| 2026-04-25 16:30 | 31.52313 | 74.40861 | 711 ft | 3 kts | 89° |
| 2026-04-25 16:30 | 31.52313 | 74.40844 | 711 ft | 0 kts | 95° |
| 2026-04-25 16:33 | 31.52315 | 74.40848 | 711 ft | 1 kts | 68° |
| 2026-04-25 16:33 | 31.52322 | 74.40852 | 711 ft | 1 kts | 8° |
| 2026-04-25 16:34 | 31.52335 | 74.40852 | 711 ft | 2 kts | 359° |
| 2026-04-25 16:34 | 31.52353 | 74.40852 | 711 ft | 2 kts | 356° |
| 2026-04-25 16:34 | 31.52375 | 74.40844 | 711 ft | 3 kts | 331° |
| 2026-04-25 16:34 | 31.52397 | 74.40816 | 711 ft | 4 kts | 297° |
| 2026-04-25 16:35 | 31.52406 | 74.40765 | 711 ft | 7 kts | 270° |
| 2026-04-25 16:35 | 31.52398 | 74.40706 | 711 ft | 7 kts | 242° |
| 2026-04-25 16:35 | 31.52352 | 74.40676 | 711 ft | 7 kts | 184° |
| 2026-04-25 16:35 | 31.52298 | 74.40672 | 711 ft | 7 kts | 181° |
| 2026-04-25 16:36 | 31.52237 | 74.40670 | 711 ft | 8 kts | 184° |
| 2026-04-25 16:36 | 31.52218 | 74.40668 | 711 ft | 8 kts | 184° |
| 2026-04-25 16:36 | 31.52109 | 74.40669 | 710 ft | 12 kts | 180° |
| 2026-04-25 16:36 | 31.52017 | 74.40668 | 708 ft | 14 kts | 180° |
| 2026-04-25 16:37 | 31.51911 | 74.40665 | 706 ft | 16 kts | 182° |
| 2026-04-25 16:37 | 31.51794 | 74.40664 | 705 ft | 17 kts | 179° |
| 2026-04-25 16:37 | 31.51683 | 74.40662 | 705 ft | 11 kts | 181° |
| 2026-04-25 16:37 | 31.51601 | 74.40659 | 705 ft | 11 kts | 180° |
| 2026-04-25 16:38 | 31.51516 | 74.40659 | 705 ft | 12 kts | 180° |
| 2026-04-25 16:38 | 31.51427 | 74.40656 | 705 ft | 12 kts | 177° |
| 2026-04-25 16:38 | 31.51336 | 74.40655 | 705 ft | 12 kts | 182° |
| 2026-04-25 16:38 | 31.51242 | 74.40653 | 705 ft | 13 kts | 181° |
| 2026-04-25 16:39 | 31.51146 | 74.40652 | 705 ft | 13 kts | 180° |
| 2026-04-25 16:39 | 31.51050 | 74.40652 | 705 ft | 13 kts | 179° |
| 2026-04-25 16:39 | 31.50953 | 74.40650 | 705 ft | 13 kts | 182° |
| 2026-04-25 16:39 | 31.50861 | 74.40646 | 705 ft | 13 kts | 181° |
| 2026-04-25 16:40 | 31.50781 | 74.40636 | 705 ft | 10 kts | 199° |
| 2026-04-25 16:40 | 31.50722 | 74.40582 | 705 ft | 10 kts | 230° |
| 2026-04-25 16:40 | 31.50672 | 74.40514 | 705 ft | 10 kts | 236° |
| 2026-04-25 16:40 | 31.50682 | 74.40444 | 705 ft | 7 kts | 317° |
| 2026-04-25 16:41 | 31.50728 | 74.40432 | 705 ft | 6 kts | 359° |
| 2026-04-25 16:41 | 31.50748 | 74.40432 | 705 ft | 9 kts | 359° |
| 2026-04-25 16:41 | 31.52396 | 74.40459 | 712 ft | 154 kts | 360° |
| 2026-04-25 16:42 | 31.53573 | 74.40469 | 869 ft | 172 kts | 358° |
| 2026-04-25 16:42 | 31.54771 | 74.40479 | 1363 ft | 173 kts | 359° |
| 2026-04-25 16:42 | 31.55997 | 74.40500 | 1819 ft | 176 kts | 0° |
| 2026-04-25 16:42 | 31.57205 | 74.40565 | 2318 ft | 175 kts | 1° |
| 2026-04-25 16:43 | 31.58459 | 74.40603 | 2574 ft | 189 kts | 353° |
| 2026-04-25 16:43 | 31.59731 | 74.39951 | 2667 ft | 211 kts | 318° |
| 2026-04-25 16:43 | 31.60508 | 74.38403 | 2891 ft | 232 kts | 284° |
| 2026-04-25 16:43 | 31.60440 | 74.36470 | 3323 ft | 251 kts | 254° |
| 2026-04-25 16:44 | 31.59614 | 74.34551 | 3743 ft | 269 kts | 242° |
| 2026-04-25 16:44 | 31.58642 | 74.32638 | 4312 ft | 276 kts | 242° |
| 2026-04-25 16:44 | 31.57674 | 74.30705 | 5028 ft | 276 kts | 242° |
| 2026-04-25 16:44 | 31.56699 | 74.28762 | 5770 ft | 276 kts | 238° |
| 2026-04-25 16:45 | 31.55425 | 74.27092 | 6446 ft | 280 kts | 226° |
| 2026-04-25 16:45 | 31.54054 | 74.25463 | 7163 ft | 281 kts | 228° |
| 2026-04-25 16:45 | 31.52708 | 74.23811 | 7896 ft | 281 kts | 228° |
| 2026-04-25 16:45 | 31.51359 | 74.22128 | 8593 ft | 283 kts | 229° |
| 2026-04-25 16:46 | 31.50026 | 74.20445 | 9314 ft | 284 kts | 229° |
| 2026-04-25 16:46 | 31.48889 | 74.19003 | 9905 ft | 286 kts | 230° |
| 2026-04-25 16:46 | 31.47497 | 74.17225 | 10143 ft | 308 kts | 230° |
| 2026-04-25 16:46 | 31.47001 | 74.16592 | 10172 ft | 317 kts | 230° |
| 2026-04-25 16:47 | 31.44400 | 74.13267 | 10788 ft | 340 kts | 230° |
| 2026-04-25 16:47 | 31.42804 | 74.11227 | 11495 ft | 343 kts | 230° |
| 2026-04-25 16:47 | 31.41184 | 74.09154 | 12139 ft | 348 kts | 230° |
| 2026-04-25 16:47 | 31.39543 | 74.07056 | 12858 ft | 350 kts | 230° |
| 2026-04-25 16:48 | 31.38072 | 74.05174 | 13443 ft | 353 kts | 230° |
| 2026-04-25 16:48 | 31.36410 | 74.03050 | 14094 ft | 357 kts | 231° |
| 2026-04-25 16:48 | 31.34735 | 74.00909 | 14768 ft | 359 kts | 230° |
| 2026-04-25 16:48 | 31.33041 | 73.98747 | 15377 ft | 364 kts | 230° |
| 2026-04-25 16:49 | 31.31328 | 73.96559 | 16024 ft | 367 kts | 230° |
| 2026-04-25 16:49 | 31.29601 | 73.94356 | 16650 ft | 369 kts | 231° |
| 2026-04-25 16:49 | 31.27862 | 73.92139 | 17104 ft | 374 kts | 231° |
| 2026-04-25 16:49 | 31.26096 | 73.89890 | 17318 ft | 370 kts | 231° |
| 2026-04-25 16:50 | 31.24361 | 73.87681 | 17538 ft | 371 kts | 231° |
| 2026-04-25 16:50 | 31.22576 | 73.85408 | 17773 ft | 376 kts | 231° |
| 2026-04-25 16:50 | 31.20819 | 73.83172 | 18089 ft | 380 kts | 231° |
| 2026-04-25 16:50 | 31.19026 | 73.80893 | 18713 ft | 381 kts | 231° |
| 2026-04-25 16:51 | 31.17220 | 73.78599 | 19381 ft | 382 kts | 231° |
| 2026-04-25 16:51 | 31.15406 | 73.76296 | 19881 ft | 387 kts | 231° |
| 2026-04-25 16:51 | 31.13592 | 73.73994 | 20474 ft | 388 kts | 232° |
| 2026-04-25 16:51 | 31.12974 | 73.73212 | 20695 ft | 388 kts | 232° |
| 2026-04-25 16:52 | 31.09883 | 73.69293 | 21504 ft | 396 kts | 232° |
| 2026-04-25 16:52 | 31.08015 | 73.66929 | 22062 ft | 397 kts | 232° |
| 2026-04-25 16:52 | 31.06147 | 73.64563 | 22556 ft | 400 kts | 232° |
| 2026-04-25 16:52 | 31.04260 | 73.62176 | 23050 ft | 403 kts | 232° |
| 2026-04-25 16:53 | 31.00429 | 73.57334 | 24026 ft | 408 kts | 232° |
| 2026-04-25 16:53 | 30.98501 | 73.54900 | 24435 ft | 412 kts | 232° |
| 2026-04-25 16:53 | 30.96558 | 73.52451 | 24876 ft | 414 kts | 232° |
| 2026-04-25 16:54 | 30.94601 | 73.49984 | 25321 ft | 417 kts | 232° |
| 2026-04-25 16:54 | 30.92636 | 73.47506 | 25761 ft | 419 kts | 232° |
| 2026-04-25 16:54 | 30.90668 | 73.45028 | 26250 ft | 420 kts | 232° |
| 2026-04-25 16:54 | 30.88678 | 73.42530 | 26583 ft | 424 kts | 232° |
| 2026-04-25 16:55 | 30.86643 | 73.39986 | 27026 ft | 426 kts | 232° |
| 2026-04-25 16:55 | 30.84637 | 73.37473 | 27483 ft | 427 kts | 232° |
| 2026-04-25 16:55 | 30.82623 | 73.34948 | 27875 ft | 429 kts | 232° |
| 2026-04-25 16:55 | 30.80604 | 73.32406 | 28296 ft | 430 kts | 232° |
| 2026-04-25 16:56 | 30.78584 | 73.29867 | 28896 ft | 427 kts | 232° |
| 2026-04-25 16:56 | 30.76580 | 73.27353 | 29525 ft | 423 kts | 232° |
| 2026-04-25 16:56 | 30.74582 | 73.24847 | 30011 ft | 423 kts | 233° |
| 2026-04-25 16:56 | 30.72586 | 73.22347 | 30403 ft | 424 kts | 233° |
| 2026-04-25 16:57 | 30.70579 | 73.19836 | 30770 ft | 425 kts | 233° |
| 2026-04-25 16:57 | 30.66529 | 73.14776 | 31245 ft | 423 kts | 233° |
| 2026-04-25 16:57 | 30.64529 | 73.12282 | 31465 ft | 424 kts | 234° |
| 2026-04-25 16:58 | 30.62525 | 73.09778 | 31696 ft | 423 kts | 233° |
| 2026-04-25 16:58 | 30.60525 | 73.07283 | 31836 ft | 427 kts | 234° |
| 2026-04-25 16:58 | 30.58496 | 73.04752 | 31850 ft | 431 kts | 234° |
| 2026-04-25 16:59 | 30.54374 | 72.99622 | 31823 ft | 433 kts | 234° |
| 2026-04-25 16:59 | 30.50191 | 72.94423 | 31853 ft | 435 kts | 234° |
| 2026-04-25 17:00 | 30.45970 | 72.89185 | 31826 ft | 437 kts | 234° |
| 2026-04-25 17:00 | 30.41759 | 72.83965 | 31837 ft | 436 kts | 234° |
| 2026-04-25 17:01 | 30.37611 | 72.78831 | 31843 ft | 435 kts | 234° |
| 2026-04-25 17:01 | 30.33416 | 72.73644 | 31837 ft | 435 kts | 234° |
| 2026-04-25 17:02 | 30.29234 | 72.68478 | 31834 ft | 438 kts | 233° |
| 2026-04-25 17:02 | 30.25096 | 72.63376 | 31836 ft | 436 kts | 233° |
| 2026-04-25 17:03 | 30.20980 | 72.58310 | 31824 ft | 432 kts | 233° |
| 2026-04-25 17:03 | 30.16847 | 72.53228 | 31831 ft | 432 kts | 234° |
| 2026-04-25 17:04 | 30.12737 | 72.48177 | 31819 ft | 435 kts | 233° |
| 2026-04-25 17:04 | 30.08533 | 72.43020 | 31825 ft | 434 kts | 234° |
| 2026-04-25 17:05 | 30.04378 | 72.37929 | 31833 ft | 434 kts | 233° |
| 2026-04-25 17:05 | 29.98176 | 72.30332 | 31823 ft | 432 kts | 233° |
| 2026-04-25 17:06 | 29.94056 | 72.25291 | 31825 ft | 434 kts | 233° |
| 2026-04-25 17:06 | 29.89924 | 72.20254 | 31817 ft | 434 kts | 234° |
| 2026-04-25 17:07 | 29.85778 | 72.15173 | 31822 ft | 431 kts | 235° |
| 2026-04-25 17:07 | 29.81803 | 72.10036 | 31819 ft | 431 kts | 235° |
| 2026-04-25 17:08 | 29.77853 | 72.04879 | 31803 ft | 432 kts | 235° |
| 2026-04-25 17:08 | 29.73877 | 71.99693 | 31810 ft | 431 kts | 234° |
| 2026-04-25 17:09 | 29.69868 | 71.94468 | 31821 ft | 433 kts | 234° |
| 2026-04-25 17:09 | 29.65880 | 71.89278 | 31811 ft | 437 kts | 234° |
| 2026-04-25 17:10 | 29.61860 | 71.84055 | 31831 ft | 434 kts | 234° |
| 2026-04-25 17:10 | 29.57841 | 71.78838 | 31797 ft | 436 kts | 234° |
| 2026-04-25 17:11 | 29.53819 | 71.73623 | 31818 ft | 438 kts | 234° |
| 2026-04-25 17:11 | 29.49766 | 71.68379 | 31814 ft | 437 kts | 234° |
| 2026-04-25 17:12 | 29.45654 | 71.63065 | 31810 ft | 437 kts | 234° |
| 2026-04-25 17:12 | 29.41557 | 71.57774 | 31813 ft | 439 kts | 234° |
| 2026-04-25 17:13 | 29.38828 | 71.54257 | 31817 ft | 438 kts | 234° |
| 2026-04-25 17:13 | 29.33004 | 71.46756 | 31809 ft | 440 kts | 233° |
| 2026-04-25 17:14 | 29.28592 | 71.41112 | 31814 ft | 441 kts | 232° |
| 2026-04-25 17:14 | 29.24257 | 71.35707 | 31807 ft | 440 kts | 233° |
| 2026-04-25 17:15 | 29.20093 | 71.30476 | 31805 ft | 441 kts | 232° |
| 2026-04-25 17:15 | 29.15908 | 71.25235 | 31808 ft | 449 kts | 232° |
| 2026-04-25 17:16 | 29.11686 | 71.19959 | 31809 ft | 447 kts | 232° |
| 2026-04-25 17:16 | 29.07308 | 71.14492 | 31801 ft | 449 kts | 232° |
| 2026-04-25 17:17 | 29.02983 | 71.09097 | 31807 ft | 450 kts | 232° |
| 2026-04-25 17:17 | 28.98681 | 71.03740 | 31807 ft | 449 kts | 232° |
| 2026-04-25 17:18 | 28.94280 | 70.98264 | 31816 ft | 452 kts | 231° |
| 2026-04-25 17:18 | 28.89917 | 70.92847 | 31819 ft | 447 kts | 232° |
| 2026-04-25 17:19 | 28.85377 | 70.87246 | 31801 ft | 440 kts | 233° |
| 2026-04-25 17:19 | 28.80902 | 70.81707 | 31798 ft | 436 kts | 233° |
| 2026-04-25 17:20 | 28.76663 | 70.76460 | 31790 ft | 439 kts | 233° |
| 2026-04-25 17:20 | 28.72527 | 70.71352 | 31797 ft | 436 kts | 233° |
| 2026-04-25 17:21 | 28.68400 | 70.66254 | 31799 ft | 440 kts | 233° |
| 2026-04-25 17:21 | 28.64250 | 70.61142 | 31779 ft | 443 kts | 232° |
| 2026-04-25 17:22 | 28.61452 | 70.57696 | 31798 ft | 447 kts | 232° |
| 2026-04-25 17:22 | 28.55762 | 70.50699 | 31817 ft | 452 kts | 231° |
| 2026-04-25 17:23 | 28.51507 | 70.45477 | 31801 ft | 450 kts | 231° |
| 2026-04-25 17:23 | 28.47252 | 70.40260 | 31806 ft | 451 kts | 231° |
| 2026-04-25 17:24 | 28.42991 | 70.35040 | 31810 ft | 451 kts | 231° |
| 2026-04-25 17:24 | 28.38724 | 70.29803 | 31809 ft | 451 kts | 230° |
| 2026-04-25 17:25 | 28.34130 | 70.24882 | 31821 ft | 455 kts | 220° |
| 2026-04-25 17:25 | 28.29153 | 70.20461 | 31813 ft | 454 kts | 221° |
| 2026-04-25 17:26 | 28.24212 | 70.15983 | 31804 ft | 455 kts | 221° |
| 2026-04-25 17:26 | 28.19232 | 70.11455 | 31819 ft | 455 kts | 221° |
| 2026-04-25 17:27 | 28.14314 | 70.06987 | 31805 ft | 454 kts | 221° |
| 2026-04-25 17:27 | 28.11015 | 70.03994 | 31807 ft | 454 kts | 221° |
| 2026-04-25 17:28 | 28.04447 | 69.98042 | 31806 ft | 455 kts | 221° |
| 2026-04-25 17:28 | 27.99481 | 69.93549 | 31800 ft | 455 kts | 221° |
| 2026-04-25 17:29 | 27.94530 | 69.89074 | 31802 ft | 457 kts | 221° |
| 2026-04-25 17:29 | 27.89367 | 69.84414 | 31797 ft | 458 kts | 221° |
| 2026-04-25 17:30 | 27.84302 | 69.79868 | 31787 ft | 455 kts | 220° |
| 2026-04-25 17:30 | 27.79349 | 69.75412 | 31788 ft | 455 kts | 221° |
| 2026-04-25 17:31 | 27.74398 | 69.70959 | 31789 ft | 454 kts | 220° |
| 2026-04-25 17:31 | 27.69419 | 69.66486 | 31786 ft | 455 kts | 221° |
| 2026-04-25 17:32 | 27.64473 | 69.62049 | 31785 ft | 455 kts | 221° |
| 2026-04-25 17:32 | 27.59535 | 69.57623 | 31789 ft | 454 kts | 220° |
| 2026-04-25 17:33 | 27.54596 | 69.53204 | 31786 ft | 454 kts | 220° |
| 2026-04-25 17:33 | 27.49619 | 69.48753 | 31789 ft | 454 kts | 220° |
| 2026-04-25 17:34 | 27.44686 | 69.44348 | 31786 ft | 453 kts | 221° |
| 2026-04-25 17:34 | 27.39720 | 69.39919 | 31782 ft | 454 kts | 221° |
| 2026-04-25 17:35 | 27.34676 | 69.35425 | 31785 ft | 454 kts | 221° |
| 2026-04-25 17:35 | 27.29728 | 69.31004 | 31784 ft | 454 kts | 220° |
| 2026-04-25 17:36 | 27.24765 | 69.26637 | 31784 ft | 455 kts | 219° |
| 2026-04-25 17:36 | 27.19707 | 69.22302 | 31788 ft | 454 kts | 219° |
| 2026-04-25 17:37 | 27.14700 | 69.17991 | 31785 ft | 455 kts | 220° |
| 2026-04-25 17:37 | 27.09692 | 69.13680 | 31785 ft | 455 kts | 220° |
| 2026-04-25 17:38 | 27.06334 | 69.10793 | 31795 ft | 454 kts | 220° |
| 2026-04-25 17:38 | 26.99650 | 69.05052 | 31797 ft | 454 kts | 220° |
| 2026-04-25 17:39 | 26.94636 | 69.00751 | 31805 ft | 455 kts | 220° |
| 2026-04-25 17:39 | 26.89584 | 68.96423 | 31785 ft | 454 kts | 220° |
| 2026-04-25 17:40 | 26.85419 | 68.92876 | 31778 ft | 451 kts | 219° |
| 2026-04-25 17:40 | 26.79602 | 68.87914 | 31787 ft | 453 kts | 219° |
| 2026-04-25 17:41 | 26.75217 | 68.84418 | 31748 ft | 467 kts | 217° |
| 2026-04-25 17:41 | 26.71675 | 68.81609 | 31120 ft | 458 kts | 217° |
| 2026-04-25 17:41 | 26.68979 | 68.79453 | 30377 ft | 450 kts | 218° |
| 2026-04-25 17:42 | 26.66274 | 68.77287 | 29355 ft | 451 kts | 218° |
| 2026-04-25 17:42 | 26.63567 | 68.75118 | 28322 ft | 452 kts | 217° |
| 2026-04-25 17:42 | 26.60918 | 68.72999 | 27537 ft | 447 kts | 218° |
| 2026-04-25 17:42 | 26.58308 | 68.70911 | 26974 ft | 436 kts | 218° |
| 2026-04-25 17:43 | 26.55769 | 68.68883 | 26585 ft | 424 kts | 218° |
| 2026-04-25 17:43 | 26.53294 | 68.66904 | 26095 ft | 430 kts | 218° |
| 2026-04-25 17:43 | 26.50830 | 68.64935 | 25613 ft | 431 kts | 218° |
| 2026-04-25 17:43 | 26.48365 | 68.62969 | 25147 ft | 425 kts | 218° |
| 2026-04-25 17:44 | 26.45991 | 68.61076 | 24706 ft | 418 kts | 218° |
| 2026-04-25 17:44 | 26.43645 | 68.59206 | 24276 ft | 414 kts | 218° |
| 2026-04-25 17:44 | 26.41283 | 68.57323 | 23839 ft | 412 kts | 218° |
| 2026-04-25 17:44 | 26.38961 | 68.55475 | 23395 ft | 409 kts | 218° |
| 2026-04-25 17:45 | 26.36654 | 68.53638 | 22949 ft | 405 kts | 218° |
| 2026-04-25 17:45 | 26.35913 | 68.53048 | 22806 ft | 404 kts | 218° |
| 2026-04-25 17:45 | 26.32114 | 68.50026 | 22077 ft | 398 kts | 218° |
| 2026-04-25 17:45 | 26.29869 | 68.48241 | 21639 ft | 396 kts | 218° |
| 2026-04-25 17:46 | 26.27640 | 68.46470 | 21133 ft | 391 kts | 218° |
| 2026-04-25 17:46 | 26.25443 | 68.44727 | 20621 ft | 384 kts | 218° |
| 2026-04-25 17:46 | 26.23268 | 68.43001 | 20112 ft | 377 kts | 218° |
| 2026-04-25 17:46 | 26.21154 | 68.41325 | 19648 ft | 370 kts | 218° |
| 2026-04-25 17:47 | 26.19058 | 68.39662 | 19278 ft | 363 kts | 218° |
| 2026-04-25 17:47 | 26.16984 | 68.38017 | 19027 ft | 370 kts | 218° |
| 2026-04-25 17:47 | 26.14876 | 68.36346 | 18778 ft | 371 kts | 218° |
| 2026-04-25 17:47 | 26.12779 | 68.34686 | 18529 ft | 369 kts | 217° |
| 2026-04-25 17:48 | 26.08606 | 68.31365 | 18097 ft | 368 kts | 217° |
| 2026-04-25 17:48 | 26.06498 | 68.29694 | 17918 ft | 367 kts | 217° |
| 2026-04-25 17:48 | 26.04423 | 68.28051 | 17748 ft | 366 kts | 217° |
| 2026-04-25 17:49 | 26.02359 | 68.26420 | 17576 ft | 365 kts | 217° |
| 2026-04-25 17:49 | 26.00287 | 68.24783 | 17406 ft | 364 kts | 217° |
| 2026-04-25 17:49 | 25.98224 | 68.23154 | 17252 ft | 364 kts | 216° |
| 2026-04-25 17:49 | 25.96173 | 68.21536 | 17100 ft | 359 kts | 216° |
| 2026-04-25 17:50 | 25.94139 | 68.19931 | 16918 ft | 358 kts | 216° |
| 2026-04-25 17:50 | 25.92084 | 68.18311 | 16722 ft | 358 kts | 216° |
| 2026-04-25 17:50 | 25.90061 | 68.16717 | 16504 ft | 356 kts | 216° |
| 2026-04-25 17:50 | 25.88042 | 68.15132 | 16242 ft | 356 kts | 216° |
| 2026-04-25 17:51 | 25.86029 | 68.13555 | 16020 ft | 354 kts | 217° |
| 2026-04-25 17:51 | 25.84024 | 68.11981 | 15795 ft | 354 kts | 217° |
| 2026-04-25 17:51 | 25.81991 | 68.10384 | 15575 ft | 353 kts | 217° |
| 2026-04-25 17:51 | 25.79997 | 68.08817 | 15324 ft | 352 kts | 217° |
| 2026-04-25 17:52 | 25.78006 | 68.07252 | 15063 ft | 351 kts | 217° |
| 2026-04-25 17:52 | 25.77333 | 68.06723 | 14976 ft | 351 kts | 217° |
| 2026-04-25 17:52 | 25.74001 | 68.04106 | 14534 ft | 349 kts | 217° |
| 2026-04-25 17:52 | 25.72027 | 68.02557 | 14272 ft | 348 kts | 217° |
| 2026-04-25 17:53 | 25.70326 | 68.01222 | 14045 ft | 347 kts | 218° |
| 2026-04-25 17:53 | 25.68355 | 67.99676 | 13786 ft | 346 kts | 218° |
| 2026-04-25 17:53 | 25.66378 | 67.98126 | 13533 ft | 345 kts | 218° |
| 2026-04-25 17:53 | 25.64394 | 67.96569 | 13290 ft | 346 kts | 217° |
| 2026-04-25 17:54 | 25.62388 | 67.94998 | 13048 ft | 347 kts | 217° |
| 2026-04-25 17:54 | 25.60391 | 67.93434 | 12803 ft | 348 kts | 216° |
| 2026-04-25 17:54 | 25.58413 | 67.91886 | 12526 ft | 346 kts | 216° |
| 2026-04-25 17:54 | 25.56453 | 67.90353 | 12267 ft | 342 kts | 216° |
| 2026-04-25 17:55 | 25.54434 | 67.88773 | 11989 ft | 341 kts | 216° |
| 2026-04-25 17:55 | 25.52494 | 67.87256 | 11739 ft | 333 kts | 216° |
| 2026-04-25 17:55 | 25.50592 | 67.85770 | 11496 ft | 324 kts | 215° |
| 2026-04-25 17:55 | 25.48769 | 67.84345 | 11249 ft | 315 kts | 215° |
| 2026-04-25 17:56 | 25.46972 | 67.82941 | 10982 ft | 308 kts | 215° |
| 2026-04-25 17:56 | 25.45235 | 67.81586 | 10714 ft | 304 kts | 215° |
| 2026-04-25 17:56 | 25.43511 | 67.80240 | 10449 ft | 300 kts | 215° |
| 2026-04-25 17:56 | 25.41780 | 67.78890 | 10179 ft | 296 kts | 215° |
| 2026-04-25 17:57 | 25.40069 | 67.77556 | 9924 ft | 294 kts | 215° |
| 2026-04-25 17:57 | 25.38363 | 67.76227 | 9665 ft | 291 kts | 216° |
| 2026-04-25 17:57 | 25.36713 | 67.74940 | 9398 ft | 289 kts | 216° |
| 2026-04-25 17:57 | 25.36161 | 67.74510 | 9311 ft | 289 kts | 215° |
| 2026-04-25 17:58 | 25.33400 | 67.72360 | 8875 ft | 286 kts | 216° |
| 2026-04-25 17:58 | 25.31767 | 67.71089 | 8629 ft | 288 kts | 216° |
| 2026-04-25 17:58 | 25.30129 | 67.69814 | 8383 ft | 290 kts | 216° |
| 2026-04-25 17:58 | 25.28482 | 67.68533 | 8128 ft | 291 kts | 216° |
| 2026-04-25 17:59 | 25.26804 | 67.67229 | 7871 ft | 292 kts | 216° |
| 2026-04-25 17:59 | 25.25137 | 67.65932 | 7622 ft | 293 kts | 216° |
| 2026-04-25 17:59 | 25.23461 | 67.64629 | 7358 ft | 290 kts | 216° |
| 2026-04-25 17:59 | 25.21788 | 67.63329 | 7100 ft | 285 kts | 216° |
| 2026-04-25 18:00 | 25.20164 | 67.62068 | 6839 ft | 281 kts | 216° |
| 2026-04-25 18:00 | 25.18560 | 67.60822 | 6578 ft | 277 kts | 216° |
| 2026-04-25 18:00 | 25.16990 | 67.59604 | 6328 ft | 273 kts | 216° |
| 2026-04-25 18:00 | 25.15440 | 67.58401 | 6082 ft | 269 kts | 216° |
| 2026-04-25 18:01 | 25.13897 | 67.57204 | 5826 ft | 266 kts | 217° |
| 2026-04-25 18:01 | 25.12389 | 67.56035 | 5575 ft | 262 kts | 217° |
| 2026-04-25 18:01 | 25.10916 | 67.54893 | 5317 ft | 259 kts | 217° |
| 2026-04-25 18:01 | 25.09435 | 67.53745 | 5064 ft | 255 kts | 217° |
| 2026-04-25 18:02 | 25.08002 | 67.52635 | 4898 ft | 249 kts | 217° |
| 2026-04-25 18:02 | 25.06607 | 67.51555 | 4737 ft | 243 kts | 217° |
| 2026-04-25 18:02 | 25.05214 | 67.50477 | 4580 ft | 240 kts | 217° |
| 2026-04-25 18:02 | 25.03857 | 67.49425 | 4427 ft | 237 kts | 218° |
| 2026-04-25 18:03 | 25.02513 | 67.48386 | 4301 ft | 235 kts | 218° |
| 2026-04-25 18:03 | 25.01180 | 67.47354 | 4177 ft | 232 kts | 218° |
| 2026-04-25 18:03 | 24.99849 | 67.46324 | 4051 ft | 228 kts | 218° |
| 2026-04-25 18:03 | 24.98599 | 67.45255 | 3924 ft | 224 kts | 228° |
| 2026-04-25 18:04 | 24.97690 | 67.43895 | 3804 ft | 218 kts | 243° |
| 2026-04-25 18:04 | 24.97069 | 67.42394 | 3683 ft | 211 kts | 251° |
| 2026-04-25 18:04 | 24.96636 | 67.40876 | 3556 ft | 209 kts | 256° |
| 2026-04-25 18:04 | 24.96282 | 67.39289 | 3451 ft | 213 kts | 258° |
| 2026-04-25 18:05 | 24.96057 | 67.38203 | 3385 ft | 215 kts | 258° |
| 2026-04-25 18:05 | 24.95599 | 67.36091 | 3283 ft | 206 kts | 257° |
| 2026-04-25 18:05 | 24.95244 | 67.34597 | 3128 ft | 196 kts | 256° |
| 2026-04-25 18:05 | 24.94891 | 67.33182 | 2919 ft | 187 kts | 255° |
| 2026-04-25 18:06 | 24.94534 | 67.31797 | 2671 ft | 185 kts | 255° |
| 2026-04-25 18:06 | 24.94179 | 67.30424 | 2420 ft | 185 kts | 256° |
| 2026-04-25 18:06 | 24.93828 | 67.29056 | 2171 ft | 183 kts | 256° |
| 2026-04-25 18:06 | 24.93489 | 67.27728 | 1928 ft | 178 kts | 256° |
| 2026-04-25 18:07 | 24.93162 | 67.26452 | 1706 ft | 160 kts | 257° |
| 2026-04-25 18:07 | 24.92871 | 67.25293 | 1399 ft | 152 kts | 257° |
| 2026-04-25 18:07 | 24.92598 | 67.24197 | 1240 ft | 132 kts | 256° |
| 2026-04-25 18:07 | 24.92335 | 67.23178 | 1032 ft | 127 kts | 257° |
| 2026-04-25 18:08 | 24.92178 | 67.22517 | 925 ft | 126 kts | 256° |
| 2026-04-25 18:08 | 24.91833 | 67.21197 | 703 ft | 129 kts | 254° |
| 2026-04-25 18:08 | 24.91552 | 67.20178 | 565 ft | 130 kts | 256° |
| 2026-04-25 18:08 | 24.91297 | 67.19110 | 417 ft | 136 kts | 255° |
| 2026-04-25 18:09 | 24.91013 | 67.18020 | 245 ft | 141 kts | 254° |
| 2026-04-25 18:09 | 24.90730 | 67.16909 | 90 ft | 134 kts | 254° |
| 2026-04-25 18:09 | 24.90502 | 67.16010 | 83 ft | 88 kts | 253° |
| 2026-04-25 18:09 | 24.90450 | 67.15801 | 82 ft | 72 kts | 255° |
| 2026-04-25 18:10 | 24.90294 | 67.15189 | 79 ft | 29 kts | 255° |
| 2026-04-25 18:10 | 24.90231 | 67.15055 | 78 ft | 9 kts | 217° |
| 2026-04-25 18:10 | 24.90197 | 67.14986 | 77 ft | 10 kts | 242° |
| 2026-04-25 18:10 | 24.90135 | 67.14907 | 77 ft | 14 kts | 221° |
| 2026-04-25 18:11 | 24.90066 | 67.14874 | 77 ft | 10 kts | 167° |
| 2026-04-25 18:11 | 24.90036 | 67.14944 | 77 ft | 11 kts | 76° |
| 2026-04-25 18:11 | 24.90059 | 67.15032 | 77 ft | 12 kts | 74° |
| 2026-04-25 18:11 | 24.90083 | 67.15127 | 77 ft | 13 kts | 75° |
| 2026-04-25 18:12 | 24.90108 | 67.15228 | 77 ft | 13 kts | 75° |
| 2026-04-25 18:12 | 24.90135 | 67.15336 | 77 ft | 14 kts | 74° |
| 2026-04-25 18:12 | 24.90164 | 67.15449 | 77 ft | 15 kts | 75° |
| 2026-04-25 18:12 | 24.90195 | 67.15569 | 79 ft | 15 kts | 75° |
| 2026-04-25 18:13 | 24.90223 | 67.15681 | 80 ft | 14 kts | 75° |
| 2026-04-25 18:13 | 24.90252 | 67.15804 | 80 ft | 15 kts | 75° |
| 2026-04-25 18:13 | 24.90262 | 67.15862 | 81 ft | 4 kts | 90° |
| 2026-04-25 18:14 | 24.90196 | 67.15926 | 82 ft | 7 kts | 166° |
| 2026-04-25 18:14 | 24.90162 | 67.15937 | 82 ft | 0 kts | 164° |
| 2026-04-25 18:14 | 24.90161 | 67.15937 | 82 ft | 0 kts | 164° |
| 2026-04-25 18:16 | 24.90162 | 67.15937 | 82 ft | 0 kts | 164° |